Traer, IA (50675)

3:22 PM CDT on August 30, 2015 (GMT -0500)
KIATRAER2 | | Change Station
CLOSE
Current Station
Personal Weather Station
Location: Traer, IA
Elevation: 955 ft
Nearby Weather Stations

Elev 955 ft 42.19 °N, 92.46 °W | Updated 1 minute ago

Overcast
Overcast
71.6 °F
Feels Like 71.6 °F
N
4.0
Wind Variable Wind from WSW
Gusts 4.0 mph

Today
High -- | Low -- °F
--% Chance of Precip.
Yesterday
High -- | Low -- °F
Precip. -- in
6:32 AM 7:47 PM
Full, 98% visible
Pressure 30.04 in
Visibility 10.0 miles
Clouds Overcast 2000 ft
Dew Point 68 °F
Humidity 90%
Rainfall 0.01 in
Snow Depth Not available.
UV 2 out of 12
Pollen 9.90 out of 12
Air Quality Not available.
Flu Activity Not available.
METAR KMIW 301953Z AUTO 18006KT 10SM OVC020 22/19 A3005 RMK AO2 SLP172 T02220189
Pressure 30.04 in
Visibility 10.0 miles
Clouds Overcast 2000 ft
Dew Point 68 °F
Humidity 90%
Rainfall 0.01 in
Snow Depth Not available.
UV 2 out of 12
Pollen 9.90 out of 12
Air Quality Not available.
Flu Activity Not available.
METAR KMIW 301953Z AUTO 18006KT 10SM OVC020 22/19 A3005 RMK AO2 SLP172 T02220189

10-Day Weather Forecast

×

Almanac

Astronomy

Aug. 30, 2015 Rise Set
Actual Time
Civil Twilight
Nautical Twilight
Astronomical Twilight
Moon
Length of Visible Light
Length of Day
Tomorrow will be .
, % of the Moon is Illuminated

Today's Extremes

State Highs State Lows

Community

WunderPhotos

Upload Photos

1,851,048 photos uploaded!

WunderBlogs® & News

Nearby

Air Quality

  Air Quality AQ Index Pollutant
Not available.

Snow Depth

Station Depth Elevation

Earthquake Activity

City Distance Mag. Time & Date
Minimum magnitude displayed is 2.5.

Coastal Water Temperatures

Place Temperature

Stations

Nearby Weather Stations

Station Location Temp. Windchill Dew Point Humidity Wind Precip. Elev Updated Type